Time;durP1;ratioP1;P1;durP2;ratioP2;P2;SDS_P1;SDS_P2;PMS_P1;PMS_P2;Temp;Humidity;BMP_temperature;BMP_pressure;BME280_temperature;BME280_humidity;BME280_pressure;Samples;Min_cycle;Max_cycle;Signal;HPM_P1;HPM_P2
2021/06/23 00:03:31;;;;;;;1999.90;999.90;;;;;;;16.94;69.50;101266.91;15300575;29;20059;-62
2021/06/23 00:11:05;;;;;;;1999.90;999.90;;;;;;;16.70;70.40;101279.16;15317302;29;20135;-58
2021/06/23 00:18:38;;;;;;;1999.90;999.90;;;;;;;16.53;69.98;101285.91;15300196;29;20501;-60
2021/06/23 00:26:11;;;;;;;1999.90;999.90;;;;;;;16.73;69.17;101262.34;15284837;29;20055;-60
2021/06/23 00:33:48;;;;;;;1999.90;999.90;;;;;;;16.52;69.72;101267.34;15316341;29;20102;-60
2021/06/23 00:41:21;;;;;;;1999.90;999.90;;;;;;;16.35;69.78;101278.94;15298314;29;20483;-60
2021/06/23 00:48:58;;;;;;;1999.90;999.90;;;;;;;16.23;70.40;101299.50;15297851;29;20058;-60
2021/06/23 00:56:34;;;;;;;1999.90;999.90;;;;;;;15.96;71.68;101311.56;15297294;29;20080;-58
2021/06/23 01:04:07;;;;;;;1999.90;999.90;;;;;;;16.03;70.60;101312.59;15314708;29;20044;-58
2021/06/23 01:12:15;;;;;;;1999.90;999.90;;;;;;;15.86;71.98;101294.00;15297455;29;20093;-59
2021/06/23 01:19:49;;;;;;;1999.90;999.90;;;;;;;15.84;71.89;101301.16;15293469;29;20099;-59
2021/06/23 01:27:24;;;;;;;1999.90;999.90;;;;;;;15.63;71.83;101346.31;15313216;29;20138;-58
2021/06/23 01:34:57;;;;;;;1999.90;999.90;;;;;;;15.72;71.47;101301.16;15312814;29;20059;-60
2021/06/23 01:42:31;;;;;;;1999.90;999.90;;;;;;;15.69;71.37;101325.19;15312368;29;20043;-59
2021/06/23 01:50:03;;;;;;;;;;;;;;;15.71;72.07;101325.66;15311584;29;20044;-59
2021/06/23 01:57:44;;;;;;;1999.90;999.90;;;;;;;15.71;72.15;101355.81;15278652;29;19930;-59
2021/06/23 02:05:29;;;;;;;1999.90;999.90;;;;;;;15.84;72.76;101360.25;15311800;29;20114;-60
2021/06/23 02:13:44;;;;;;;1999.90;999.90;;;;;;;16.05;72.25;101366.56;15310902;29;20102;-59
2021/06/23 02:21:53;;;;;;;1999.90;999.90;;;;;;;16.16;70.32;101345.19;15273206;29;20052;-59
2021/06/23 02:29:26;;;;;;;1999.90;999.90;;;;;;;15.94;70.59;101342.03;15293109;29;20048;-60
2021/06/23 02:37:01;;;;;;;1999.90;999.90;;;;;;;15.98;71.73;101355.06;15277345;29;20111;-60
2021/06/23 02:44:34;;;;;;;1999.90;999.90;;;;;;;16.20;70.12;101358.53;15275445;29;20118;-60
2021/06/23 02:52:10;;;;;;;1999.90;999.90;;;;;;;16.25;70.61;101361.91;15291209;29;20058;-60
2021/06/23 02:59:46;;;;;;;1999.90;999.90;;;;;;;16.35;71.60;101355.78;15309067;29;20466;-57
2021/06/23 03:07:22;;;;;;;1999.90;999.90;;;;;;;16.53;71.76;101347.06;15308522;29;20134;-56
2021/06/23 03:15:00;;;;;;;1999.90;999.90;;;;;;;16.65;72.46;101373.19;15308517;29;20099;-59
2021/06/23 03:22:33;;;;;;;1999.90;999.90;;;;;;;16.95;71.60;101382.09;15291152;29;20078;-58
2021/06/23 03:30:08;;;;;;;1999.90;999.90;;;;;;;17.14;71.39;101394.69;15277979;29;20050;-57
2021/06/23 03:37:42;;;;;;;1999.90;999.90;;;;;;;17.14;71.53;101403.97;15291510;29;20079;-60
2021/06/23 03:45:16;;;;;;;1999.90;999.90;;;;;;;17.17;71.60;101413.72;15308270;29;20091;-60
2021/06/23 03:52:50;;;;;;;1999.90;999.90;;;;;;;17.30;71.54;101410.47;15307446;29;20153;-59
2021/06/23 04:00:27;;;;;;;1999.90;999.90;;;;;;;17.14;72.09;101415.25;15281719;29;20051;-58
2021/06/23 04:08:00;;;;;;;1999.90;999.90;;;;;;;17.21;71.85;101417.47;15316716;29;20044;-60
2021/06/23 04:15:32;;;;;;;1999.90;999.90;;;;;;;17.71;70.19;101425.25;15317424;29;20505;-60
2021/06/23 04:23:06;;;;;;;1999.90;999.90;;;;;;;17.95;68.93;101429.91;15317039;29;20048;-59
2021/06/23 04:30:39;;;;;;;1999.90;999.90;;;;;;;17.86;68.93;101434.91;15283522;29;20044;-61
2021/06/23 04:38:14;;;;;;;1999.90;999.90;;;;;;;18.22;67.33;101453.53;15382950;23;20512;-63
2021/06/23 04:45:48;;;;;;;1999.90;999.90;;;;;;;18.57;65.89;101447.06;15399792;28;20098;-60
2021/06/23 04:53:24;;;;;;;1999.90;999.90;;;;;;;18.49;66.42;101453.75;15361580;28;20047;-61
2021/06/23 05:00:56;;;;;;;1999.90;999.90;;;;;;;19.00;65.23;101475.09;15362404;29;20058;-59
2021/06/23 05:08:37;;;;;;;1999.90;999.90;;;;;;;19.35;64.93;101482.66;15360381;28;20039;-61
2021/06/23 05:16:09;;;;;;;1999.90;999.90;;;;;;;19.50;64.36;101484.56;15378096;29;20058;-61
2021/06/23 05:23:43;;;;;;;1999.90;999.90;;;;;;;19.45;63.13;101484.06;15379200;29;20078;-60
2021/06/23 05:31:15;;;;;;;1999.90;999.90;;;;;;;19.41;63.42;101478.34;15377636;28;20051;-62
2021/06/23 05:38:48;;;;;;;1999.90;999.90;;;;;;;19.54;63.60;101479.78;15359645;28;20504;-63
2021/06/23 05:46:21;;;;;;;1999.90;999.90;;;;;;;19.56;63.91;101500.06;15360074;29;20133;-64
2021/06/23 05:53:56;;;;;;;1999.90;999.90;;;;;;;19.78;63.52;101495.63;15358559;28;20531;-63
2021/06/23 06:01:30;;;;;;;1999.90;999.90;;;;;;;19.88;63.00;101505.50;15375255;29;20047;-63
2021/06/23 06:09:03;;;;;;;1999.90;999.90;;;;;;;19.96;62.13;101520.63;15376021;28;20047;-62
2021/06/23 06:16:35;;;;;;;1999.90;999.90;;;;;;;19.99;62.13;101525.50;15375927;28;20327;-63
2021/06/23 06:24:09;;;;;;;1999.90;999.90;;;;;;;20.03;61.90;101532.91;15374733;28;20059;-63
2021/06/23 06:31:42;;;;;;;1999.90;999.90;;;;;;;20.02;62.68;101536.13;15342431;29;20102;-62
2021/06/23 06:39:15;;;;;;;1999.90;999.90;;;;;;;20.35;61.92;101543.94;15357599;28;20075;-64
2021/06/23 06:46:48;;;;;;;1999.90;999.90;;;;;;;20.64;61.11;101542.44;15374222;28;20484;-62
2021/06/23 06:54:21;;;;;;;1999.90;999.90;;;;;;;20.29;61.50;101545.47;15374147;28;20094;-60
2021/06/23 07:01:53;;;;;;;1999.90;999.90;;;;;;;20.64;61.63;101548.91;15374536;29;20090;-64
2021/06/23 07:09:27;;;;;;;1999.90;999.90;;;;;;;20.87;60.46;101557.34;15372908;28;20419;-63
2021/06/23 07:16:59;;;;;;;1999.90;999.90;;;;;;;20.88;60.23;101561.00;15356192;28;20405;-63
2021/06/23 07:24:32;;;;;;;1999.90;999.90;;;;;;;21.05;59.29;101571.78;15372096;28;20584;-62
2021/06/23 07:32:07;;;;;;;1999.90;999.90;;;;;;;21.09;58.91;101555.63;15375537;28;20158;-63
2021/06/23 07:39:41;;;;;;;1999.90;999.90;;;;;;;21.54;57.68;101556.59;15384689;28;20063;-64
2021/06/23 07:47:17;;;;;;;1999.90;999.90;;;;;;;21.75;57.68;101556.84;15384480;28;20130;-64
2021/06/23 07:55:03;;;;;;;1999.90;999.90;;;;;;;22.36;55.75;101549.75;15368014;28;20111;-64
2021/06/23 08:10:28;;;;;;;1999.90;999.90;;;;;;;22.33;55.79;101558.25;15382883;28;20646;-62
2021/06/23 08:18:00;;;;;;;1999.90;999.90;;;;;;;22.47;54.24;101559.16;15364825;28;20519;-64
2021/06/23 08:25:34;;;;;;;1999.90;999.90;;;;;;;22.77;55.30;101558.97;15364894;28;20043;-62
2021/06/23 08:33:07;;;;;;;1999.90;999.90;;;;;;;23.50;55.13;101556.09;15381217;28;20489;-64
2021/06/23 08:40:41;;;;;;;1999.90;999.90;;;;;;;23.87;51.26;101560.72;15380847;28;20047;-61
2021/06/23 08:48:13;;;;;;;1999.90;999.90;;;;;;;24.29;50.10;101568.50;15363081;28;20055;-64
2021/06/23 08:55:47;;;;;;;1999.90;999.90;;;;;;;24.39;48.88;101578.31;15380103;28;20051;-64
2021/06/23 09:03:20;;;;;;;1999.90;999.90;;;;;;;24.32;49.01;101572.63;15361872;28;20047;-63
2021/06/23 09:10:53;;;;;;;1999.90;999.90;;;;;;;24.23;48.76;101587.25;15364933;29;20066;-63
2021/06/23 09:18:27;;;;;;;1999.90;999.90;;;;;;;25.29;47.92;101600.63;15362447;29;20035;-63
2021/06/23 09:26:10;;;;;;;1999.90;999.90;;;;;;;25.36;41.82;101607.53;15385799;28;20592;-63
2021/06/23 09:33:42;;;;;;;1999.90;999.90;;;;;;;25.56;43.20;101602.97;15360055;28;20047;-62
2021/06/23 09:41:25;;;;;;;1999.90;999.90;;;;;;;24.60;44.46;101604.00;15360714;29;20110;-64
2021/06/23 09:49:09;;;;;;;1999.90;999.90;;;;;;;24.69;44.10;101606.41;15359876;29;20043;-64
2021/06/23 09:56:45;;;;;;;1999.90;999.90;;;;;;;24.25;46.87;101599.06;15358725;28;20533;-63
2021/06/23 10:04:17;;;;;;;1999.90;999.90;;;;;;;24.58;48.08;101609.28;15375835;28;20048;-64
2021/06/23 10:11:53;;;;;;;1999.90;999.90;;;;;;;24.28;49.10;101614.53;15376248;29;20138;-62
2021/06/23 10:19:25;;;;;;;1999.90;999.90;;;;;;;23.76;50.27;101608.31;15358517;29;20043;-62
2021/06/23 10:27:00;;;;;;;1999.90;999.90;;;;;;;23.53;49.82;101608.59;15375330;28;20075;-64
2021/06/23 10:34:33;;;;;;;1999.90;999.90;;;;;;;22.86;50.83;101617.59;15342580;28;20449;-63
2021/06/23 10:42:08;;;;;;;;;;;;;;;23.16;50.83;101635.28;15375038;29;20047;-62
2021/06/23 10:49:42;;;;;;;1999.90;999.90;;;;;;;22.73;54.40;101639.84;15357012;28;19993;-61
2021/06/23 10:57:26;;;;;;;1999.90;999.90;;;;;;;22.35;53.84;101663.88;15356650;28;20058;-63
2021/06/23 11:05:07;;;;;;;1999.90;999.90;;;;;;;22.34;54.97;101657.38;15374184;28;20043;-63
2021/06/23 11:12:48;;;;;;;1999.90;999.90;;;;;;;22.37;55.66;101676.47;15368875;29;20090;-61
2021/06/23 11:20:38;;;;;;;1999.90;999.90;;;;;;;21.99;55.64;101663.47;15369377;29;20039;-62
2021/06/23 11:28:28;;;;;;;1999.90;999.90;;;;;;;22.51;56.53;101666.44;15368739;28;20102;-62
2021/06/23 11:36:03;;;;;;;1999.90;999.90;;;;;;;21.77;58.77;101656.69;15352058;28;20523;-63
2021/06/23 11:43:37;;;;;;;1999.90;999.90;;;;;;;21.67;55.61;101648.84;15367856;28;20043;-62
2021/06/23 11:51:10;;;;;;;1999.90;999.90;;;;;;;21.41;58.40;101640.41;15366678;28;20390;-62
2021/06/23 11:58:44;;;;;;;1999.90;999.90;;;;;;;21.43;59.63;101643.69;15383483;28;20463;-62
2021/06/23 12:06:17;;;;;;;1999.90;999.90;;;;;;;21.43;60.22;101663.56;15382731;28;20058;-62
2021/06/23 12:13:51;;;;;;;1999.90;999.90;;;;;;;21.37;61.65;101667.94;15384877;28;20077;-62
2021/06/23 12:21:23;;;;;;;1999.90;999.90;;;;;;;21.21;62.72;101674.56;15364833;28;20038;-62
2021/06/23 12:28:56;;;;;;;1999.90;999.90;;;;;;;21.49;62.54;101679.06;15364566;29;20070;-62
2021/06/23 12:36:28;;;;;;;1999.90;999.90;;;;;;;21.77;60.80;101687.13;15363747;28;20397;-62
2021/06/23 12:44:02;;;;;;;1999.90;999.90;;;;;;;22.64;59.63;101677.16;15380826;28;20043;-63
2021/06/23 12:51:34;;;;;;;1999.90;999.90;;;;;;;22.99;62.06;101675.81;15362681;28;20146;-62
2021/06/23 12:59:08;;;;;;;1999.90;999.90;;;;;;;23.06;56.75;101675.88;15362829;29;20572;-62
2021/06/23 13:06:40;;;;;;;1999.90;999.90;;;;;;;22.93;57.39;101678.25;15379528;28;20106;-61
2021/06/23 13:14:14;;;;;;;1999.90;999.90;;;;;;;22.52;55.73;101677.44;15345551;28;20056;-62
2021/06/23 13:21:47;;;;;;;1999.90;999.90;;;;;;;22.44;57.53;101687.13;15378185;29;20421;-62
2021/06/23 13:29:20;;;;;;;1999.90;999.90;;;;;;;22.38;54.79;101674.44;15391001;28;20105;-62
2021/06/23 13:36:52;;;;;;;1999.90;999.90;;;;;;;22.40;56.85;101689.09;15348573;28;20051;-62
2021/06/23 13:44:26;;;;;;;1999.90;999.90;;;;;;;21.97;55.65;101676.41;15363998;28;20051;-63
2021/06/23 13:51:59;;;;;;;1999.90;999.90;;;;;;;21.79;55.62;101667.69;15360029;29;20532;-62
2021/06/23 13:59:33;;;;;;;1999.90;999.90;;;;;;;21.88;54.30;101669.03;15359427;29;20408;-63
2021/06/23 14:07:06;;;;;;;1999.90;999.90;;;;;;;21.95;55.12;101659.75;15375936;28;20063;-63
2021/06/23 14:14:39;;;;;;;1999.90;999.90;;;;;;;22.12;56.03;101662.00;15374646;28;20040;-63
2021/06/23 14:22:12;;;;;;;1999.90;999.90;;;;;;;22.49;55.33;101658.31;15358300;29;20396;-63
2021/06/23 14:29:45;;;;;;;1999.90;999.90;;;;;;;22.52;55.11;101665.25;15375085;28;20102;-62
2021/06/23 14:37:18;;;;;;;1999.90;999.90;;;;;;;21.61;54.28;101667.47;15315747;29;20064;-63
2021/06/23 14:44:52;;;;;;;1999.90;999.90;;;;;;;22.30;55.87;101667.03;15297403;29;20047;-63
2021/06/23 14:52:24;;;;;;;1999.90;999.90;;;;;;;22.36;55.26;101660.63;15313641;29;20469;-63
2021/06/23 14:59:58;;;;;;;1999.90;999.90;;;;;;;22.42;53.69;101650.53;15297369;29;20477;-63
2021/06/23 15:07:30;;;;;;;1999.90;999.90;;;;;;;22.57;54.68;101653.50;15314938;29;20043;-62
2021/06/23 15:15:05;;;;;;;1999.90;999.90;;;;;;;22.56;51.09;101658.38;15314689;29;20446;-63
2021/06/23 15:22:38;;;;;;;1999.90;999.90;;;;;;;22.71;53.63;101651.59;15298011;29;20482;-63
2021/06/23 15:30:13;;;;;;;1999.90;999.90;;;;;;;23.22;51.61;101632.88;15313987;29;20043;-63
2021/06/23 15:37:45;;;;;;;1999.90;999.90;;;;;;;23.17;52.89;101617.00;15314230;29;20051;-63
2021/06/23 15:45:19;;;;;;;1999.90;999.90;;;;;;;23.25;52.21;101615.00;15296327;29;20138;-62
2021/06/23 15:52:51;;;;;;;1999.90;999.90;;;;;;;23.07;53.21;101614.91;15301728;29;20044;-62
2021/06/23 16:00:26;;;;;;;1999.90;999.90;;;;;;;23.59;51.43;101615.59;15323658;29;20075;-62
2021/06/23 16:07:59;;;;;;;1999.90;999.90;;;;;;;23.59;51.34;101607.88;15306516;29;20052;-62
2021/06/23 16:15:32;;;;;;;1999.90;999.90;;;;;;;23.87;51.22;101600.63;15321959;29;20051;-62
2021/06/23 16:23:05;;;;;;;1999.90;999.90;;;;;;;23.12;52.31;101600.28;15305400;29;20050;-62
2021/06/23 16:30:39;;;;;;;1999.90;999.90;;;;;;;23.31;51.29;101593.47;15322504;29;20039;-62
2021/06/23 16:38:11;;;;;;;1999.90;999.90;;;;;;;22.98;51.12;101589.63;15289178;29;20047;-63
2021/06/23 16:45:44;;;;;;;1999.90;999.90;;;;;;;23.10;51.56;101604.72;15322013;29;20126;-64
2021/06/23 16:53:17;;;;;;;1999.90;999.90;;;;;;;23.09;51.15;101601.06;15304065;29;20071;-62
2021/06/23 17:00:51;;;;;;;;;;;;;;;23.22;50.56;101610.09;15321303;29;20051;-62
2021/06/23 17:08:24;;;;;;;1999.90;999.90;;;;;;;22.91;53.04;101612.34;15318765;29;19929;-62
2021/06/23 17:15:57;;;;;;;;;;;;;;;22.51;53.15;101618.94;15303935;29;20048;-62
2021/06/23 17:23:30;;;;;;;1999.90;999.90;;;;;;;22.42;53.15;101616.41;15319300;29;19923;-64
2021/06/23 17:31:03;;;;;;;1999.90;999.90;;;;;;;22.36;53.44;101612.28;15318453;29;20075;-63
2021/06/23 17:38:36;;;;;;;1999.90;999.90;;;;;;;22.30;53.43;101610.19;15318427;29;20051;-64
2021/06/23 17:46:10;;;;;;;1999.90;999.90;;;;;;;21.84;54.74;101608.50;15300958;29;20519;-64
2021/06/23 17:53:42;;;;;;;1999.90;999.90;;;;;;;21.47;54.56;101613.34;15317710;29;20078;-64
2021/06/23 18:01:17;;;;;;;1999.90;999.90;;;;;;;21.42;54.32;101622.16;15317685;29;20159;-62
2021/06/23 18:08:49;;;;;;;1999.90;999.90;;;;;;;21.28;55.27;101634.97;15316249;29;20039;-64
2021/06/23 18:16:23;;;;;;;1999.90;999.90;;;;;;;21.16;55.32;101631.53;15315389;29;20700;-62
2021/06/23 18:23:55;;;;;;;1999.90;999.90;;;;;;;20.99;56.40;101621.53;15315673;29;20485;-64
2021/06/23 18:31:29;;;;;;;1999.90;999.90;;;;;;;21.04;56.32;101624.03;15282296;29;20050;-65
2021/06/23 18:39:01;;;;;;;1999.90;999.90;;;;;;;20.87;56.69;101639.59;15298162;29;20473;-64
2021/06/23 18:46:36;;;;;;;1999.90;999.90;;;;;;;21.02;56.20;101646.31;15314365;29;20601;-64
2021/06/23 18:54:08;;;;;;;1999.90;999.90;;;;;;;21.07;55.97;101643.16;15312804;29;20063;-64
2021/06/23 19:01:46;;;;;;;1999.90;999.90;;;;;;;20.99;55.92;101632.91;15309946;29;20043;-63
2021/06/23 19:09:21;;;;;;;1999.90;999.90;;;;;;;21.00;56.13;101632.50;15311591;29;20051;-61
2021/06/23 19:16:54;;;;;;;1999.90;999.90;;;;;;;21.10;55.56;101636.72;15314274;29;20106;-63
2021/06/23 19:24:26;;;;;;;1999.90;999.90;;;;;;;21.10;56.43;101638.72;15299237;29;20488;-63
2021/06/23 19:32:01;;;;;;;1999.90;999.90;;;;;;;21.07;56.12;101640.31;15328032;29;20054;-63
2021/06/23 19:39:33;;;;;;;1999.90;999.90;;;;;;;21.01;56.45;101661.69;15297450;29;20139;-65
2021/06/23 19:47:06;;;;;;;1999.90;999.90;;;;;;;20.60;56.85;101646.44;15308039;29;20048;-63
2021/06/23 19:54:38;;;;;;;1999.90;999.90;;;;;;;20.61;56.85;101645.25;15308086;29;20048;-61
2021/06/23 20:02:12;;;;;;;1999.90;999.90;;;;;;;20.54;56.92;101650.81;15324700;29;20062;-65
2021/06/23 20:09:44;;;;;;;1999.90;999.90;;;;;;;20.38;57.71;101648.88;15311453;29;20059;-60
2021/06/23 20:17:17;;;;;;;1999.90;999.90;;;;;;;20.20;57.94;101630.72;15300430;29;20071;-63
2021/06/23 20:24:50;;;;;;;1999.90;999.90;;;;;;;20.17;58.22;101623.00;15297119;29;20099;-62
2021/06/23 20:32:23;;;;;;;1999.90;999.90;;;;;;;19.96;58.93;101606.41;15304643;29;20071;-62
2021/06/23 20:39:55;;;;;;;1999.90;999.90;;;;;;;19.63;60.15;101601.31;15304310;29;20048;-61
2021/06/23 20:47:29;;;;;;;1999.90;999.90;;;;;;;19.44;61.40;101595.63;15322520;29;20076;-64
2021/06/23 20:55:02;;;;;;;1999.90;999.90;;;;;;;19.13;61.74;101571.94;15305986;29;20486;-64
2021/06/23 21:02:36;;;;;;;1999.90;999.90;;;;;;;18.99;62.53;101566.78;15320832;29;20048;-62
2021/06/23 21:10:10;;;;;;;1999.90;999.90;;;;;;;18.82;63.53;101558.72;15297112;29;20480;-64
2021/06/23 21:17:44;;;;;;;1999.90;999.90;;;;;;;18.76;63.83;101571.53;15302100;29;20083;-64
2021/06/23 21:25:17;;;;;;;1999.90;999.90;;;;;;;18.52;63.90;101555.56;15302275;29;20071;-63
2021/06/23 21:32:53;;;;;;;;;;;;;;;18.45;64.58;101569.53;15319225;29;20048;-62
2021/06/23 21:40:25;;;;;;;1999.90;999.90;;;;;;;18.15;65.06;101546.59;15295598;29;20435;-63
2021/06/23 21:48:17;;;;;;;1999.90;999.90;;;;;;;18.01;65.75;101540.53;15295818;29;20054;-63
2021/06/23 21:55:58;;;;;;;1999.90;999.90;;;;;;;17.89;66.18;101527.34;15315322;29;20099;-64
2021/06/23 22:03:34;;;;;;;1999.90;999.90;;;;;;;17.91;66.66;101530.63;15317110;29;20299;-64
2021/06/23 22:11:38;;;;;;;1999.90;999.90;;;;;;;18.02;66.84;101545.00;15299240;29;20056;-64
2021/06/23 22:19:12;;;;;;;1999.90;999.90;;;;;;;17.85;66.73;101574.44;15244311;29;20154;-64
2021/06/23 22:26:44;;;;;;;1999.90;999.90;;;;;;;17.77;66.85;101561.31;15315937;29;20126;-63
2021/06/23 22:34:18;;;;;;;1999.90;999.90;;;;;;;17.63;67.68;101541.94;15316328;29;20056;-63
2021/06/23 22:41:58;;;;;;;;;;;;;;;17.62;67.97;101526.19;15316278;29;20047;-62
2021/06/23 22:49:38;;;;;;;1999.90;999.90;;;;;;;17.52;68.24;101529.53;15316061;29;19966;-63
2021/06/23 22:57:12;;;;;;;1999.90;999.90;;;;;;;17.54;68.72;101530.81;15299469;29;20082;-63
2021/06/23 23:04:46;;;;;;;1999.90;999.90;;;;;;;17.51;68.51;101510.97;15313495;29;20553;-63
2021/06/23 23:12:18;;;;;;;1999.90;999.90;;;;;;;17.42;68.78;101513.13;15311959;29;20398;-63
2021/06/23 23:19:51;;;;;;;1999.90;999.90;;;;;;;17.52;68.55;101513.44;15296567;29;20453;-63
2021/06/23 23:27:23;;;;;;;1999.90;999.90;;;;;;;17.49;68.29;101522.59;15313908;29;20103;-63
2021/06/23 23:34:57;;;;;;;1999.90;999.90;;;;;;;17.49;68.75;101541.53;15313094;29;20134;-64
2021/06/23 23:42:29;;;;;;;;;;;;;;;17.54;68.29;101544.09;15296595;29;20406;-63
2021/06/23 23:50:03;;;;;;;1999.90;999.90;;;;;;;17.47;68.77;101546.72;15313432;29;19923;-62
2021/06/23 23:57:35;;;;;;;1999.90;999.90;;;;;;;17.33;68.80;101541.50;15295585;29;20051;-63
